Time;durP1;ratioP1;P1;durP2;ratioP2;P2;SDS_P1;SDS_P2;PMS_P1;PMS_P2;Temp;Humidity;BMP_temperature;BMP_pressure;BME280_temperature;BME280_humidity;BME280_pressure;Samples;Min_cycle;Max_cycle;Signal;HPM_P1;HPM_P2
2023/01/20 00:01:23;;;;;;;6.37;1.83;;;13.50;81.90;;;;;;5035128;28;20199;-77
2023/01/20 00:03:52;;;;;;;4.23;1.50;;;13.50;81.90;;;;;;5039572;28;20534;-78
2023/01/20 00:06:21;;;;;;;4.87;1.40;;;13.60;81.90;;;;;;5049705;28;20214;-78
2023/01/20 00:08:55;;;;;;;2.73;1.27;;;13.60;81.80;;;;;;5043457;28;20195;-78
2023/01/20 00:11:24;;;;;;;2.73;1.23;;;13.60;81.80;;;;;;5039689;28;20227;-77
2023/01/20 00:13:54;;;;;;;5.40;1.57;;;13.60;81.90;;;;;;5034538;28;20219;-78
2023/01/20 00:16:23;;;;;;;4.67;1.80;;;13.50;81.90;;;;;;5038967;28;20259;-77
2023/01/20 00:18:52;;;;;;;3.73;1.73;;;13.60;81.90;;;;;;5039475;28;20194;-77
2023/01/20 00:21:20;;;;;;;3.27;2.10;;;13.50;81.90;;;;;;5045719;28;20195;-76
2023/01/20 00:23:50;;;;;;;6.47;1.83;;;13.50;81.90;;;;;;5038855;28;20218;-77
2023/01/20 00:26:21;;;;;;;3.47;1.60;;;13.50;81.80;;;;;;5040704;28;20620;-77
2023/01/20 00:28:50;;;;;;;3.37;1.80;;;13.60;81.90;;;;;;5038008;28;20230;-77
2023/01/20 00:31:20;;;;;;;3.50;1.93;;;13.50;81.70;;;;;;5045029;28;20248;-77
2023/01/20 00:33:51;;;;;;;6.80;2.50;;;13.50;81.80;;;;;;5043716;28;20567;-78
2023/01/20 00:36:21;;;;;;;4.43;2.43;;;13.50;82.00;;;;;;5035856;28;20203;-76
2023/01/20 00:38:50;;;;;;;4.10;2.03;;;13.50;81.90;;;;;;5040993;28;20195;-77
2023/01/20 00:41:19;;;;;;;5.27;1.53;;;13.50;81.90;;;;;;5040335;28;20298;-76
2023/01/20 00:43:48;;;;;;;4.03;1.90;;;13.50;81.90;;;;;;5036047;28;20721;-76
2023/01/20 00:46:16;;;;;;;7.37;1.87;;;13.50;81.90;;;;;;5042905;28;20253;-76
2023/01/20 00:48:45;;;;;;;3.93;1.80;;;13.40;81.80;;;;;;5044763;28;20199;-78
2023/01/20 00:51:13;;;;;;;5.63;1.93;;;13.40;81.90;;;;;;5041492;28;20226;-78
2023/01/20 00:53:42;;;;;;;5.03;2.23;;;13.40;81.90;;;;;;5040081;28;20269;-78
2023/01/20 00:56:10;;;;;;;2.77;1.60;;;13.40;82.00;;;;;;5046416;28;20640;-78
2023/01/20 00:58:41;;;;;;;4.63;1.83;;;13.40;82.20;;;;;;5039433;28;20246;-76
2023/01/20 01:01:10;;;;;;;5.80;2.13;;;13.40;82.10;;;;;;5036928;28;20227;-77
2023/01/20 01:03:39;;;;;;;6.17;2.00;;;13.40;82.10;;;;;;5042291;28;20203;-77
2023/01/20 01:06:09;;;;;;;5.43;1.90;;;13.30;82.10;;;;;;5044125;28;20192;-77
2023/01/20 01:08:38;;;;;;;5.17;2.30;;;13.30;82.10;;;;;;5046708;28;20233;-77
2023/01/20 01:11:07;;;;;;;4.60;2.47;;;13.30;82.20;;;;;;5036751;28;20192;-78
2023/01/20 01:13:36;;;;;;;4.73;2.33;;;13.30;82.20;;;;;;5044043;28;20203;-78
2023/01/20 01:16:10;;;;;;;5.67;2.47;;;13.30;82.20;;;;;;5045713;28;20301;-77
2023/01/20 01:18:38;;;;;;;9.20;2.37;;;13.30;82.30;;;;;;5042916;28;20343;-77
2023/01/20 01:21:08;;;;;;;8.43;2.77;;;13.30;82.40;;;;;;5042126;28;20648;-77
2023/01/20 01:23:37;;;;;;;5.60;2.73;;;13.20;82.50;;;;;;5041171;28;20244;-77
2023/01/20 01:26:05;;;;;;;10.73;3.17;;;13.20;82.50;;;;;;5042885;28;20191;-77
2023/01/20 01:28:33;;;;;;;5.30;2.90;;;13.10;82.50;;;;;;5045518;28;20198;-77
2023/01/20 01:31:03;;;;;;;6.73;2.73;;;13.10;82.70;;;;;;5039722;28;20257;-78
2023/01/20 01:33:33;;;;;;;6.67;3.23;;;13.10;82.70;;;;;;5045314;28;20706;-76
2023/01/20 01:36:03;;;;;;;4.27;2.43;;;13.10;82.80;;;;;;5045378;28;20215;-78
2023/01/20 01:38:32;;;;;;;5.90;2.83;;;13.10;82.80;;;;;;5048779;28;20218;-77
2023/01/20 01:41:01;;;;;;;5.50;2.57;;;13.10;82.80;;;;;;5050827;28;20195;-77
2023/01/20 01:43:31;;;;;;;8.38;3.67;;;13.00;82.80;;;;;;5046112;28;20499;-76
2023/01/20 01:45:59;;;;;;;7.77;3.00;;;13.00;83.30;;;;;;5047478;28;20191;-76
2023/01/20 01:48:32;;;;;;;5.00;2.20;;;13.00;83.70;;;;;;5046016;28;20248;-77
2023/01/20 01:51:07;;;;;;;4.37;2.07;;;13.00;83.60;;;;;;5047543;28;20199;-78
2023/01/20 01:53:41;;;;;;;7.60;2.27;;;12.90;84.20;;;;;;5045149;28;20280;-78
2023/01/20 01:56:11;;;;;;;6.70;2.60;;;12.90;83.90;;;;;;5048109;28;20625;-77
2023/01/20 01:58:45;;;;;;;6.80;2.77;;;12.90;84.00;;;;;;5046783;28;20199;-78
2023/01/20 02:01:13;;;;;;;5.63;2.10;;;12.90;84.10;;;;;;5045500;28;20198;-76
2023/01/20 02:03:48;;;;;;;6.60;2.80;;;12.80;84.00;;;;;;5043600;28;20234;-77
2023/01/20 02:06:19;;;;;;;3.33;2.20;;;12.80;84.30;;;;;;5038251;28;20652;-78
2023/01/20 02:08:48;;;;;;;6.60;3.10;;;12.80;84.40;;;;;;5044714;28;20724;-78
2023/01/20 02:11:17;;;;;;;9.17;2.40;;;12.80;84.40;;;;;;5045144;28;20344;-78
2023/01/20 02:13:45;;;;;;;5.03;2.60;;;12.80;84.50;;;;;;5046137;28;20291;-77
2023/01/20 02:16:18;;;;;;;6.70;2.70;;;12.80;84.40;;;;;;5047582;28;20226;-77
2023/01/20 02:19:00;;;;;;;4.83;2.83;;;12.80;84.40;;;;;;5039202;28;20354;-78
2023/01/20 02:21:54;;;;;;;6.10;3.33;;;12.80;84.40;;;;;;5040621;28;20329;-77
2023/01/20 02:25:00;;;;;;;5.57;3.10;;;12.70;84.40;;;;;;5041654;28;20195;-77
2023/01/20 02:27:46;;;;;;;9.13;3.13;;;12.70;84.40;;;;;;5044250;28;20246;-77
2023/01/20 02:30:45;;;;;;;9.97;2.97;;;12.70;84.50;;;;;;5035987;28;20191;-78
2023/01/20 02:33:20;;;;;;;7.37;3.13;;;12.60;84.60;;;;;;5037449;28;20291;-78
2023/01/20 02:35:53;;;;;;;6.97;3.27;;;12.60;84.60;;;;;;5041809;28;20211;-76
2023/01/20 02:38:27;;;;;;;6.60;3.00;;;12.60;84.60;;;;;;5041530;28;20196;-76
2023/01/20 02:41:04;;;;;;;9.17;3.77;;;12.60;85.90;;;;;;5046987;28;20223;-77
2023/01/20 02:43:36;;;;;;;5.23;2.97;;;12.60;85.10;;;;;;5043250;28;20190;-76
2023/01/20 02:46:11;;;;;;;8.40;2.83;;;12.60;85.20;;;;;;5032971;28;20191;-76
2023/01/20 02:48:44;;;;;;;5.63;2.97;;;12.50;85.80;;;;;;5030518;28;20817;-78
2023/01/20 02:51:16;;;;;;;7.03;3.27;;;12.50;85.70;;;;;;5030323;28;20191;-78
2023/01/20 02:53:50;;;;;;;7.63;2.90;;;12.60;85.60;;;;;;5035004;28;20227;-76
2023/01/20 02:56:21;;;;;;;5.47;2.60;;;12.60;85.70;;;;;;5030439;28;20242;-78
2023/01/20 02:58:52;;;;;;;5.00;2.43;;;12.50;85.60;;;;;;5045868;28;20305;-76
2023/01/20 03:01:24;;;;;;;5.03;3.03;;;12.60;85.70;;;;;;5041412;28;20204;-78
2023/01/20 03:03:59;;;;;;;6.50;2.73;;;12.60;85.70;;;;;;5040380;28;20227;-76
2023/01/20 03:06:33;;;;;;;6.90;2.57;;;12.60;85.70;;;;;;5041435;28;20726;-76
2023/01/20 03:09:05;;;;;;;7.80;2.30;;;12.60;85.60;;;;;;5036699;28;20249;-78
2023/01/20 03:11:36;;;;;;;7.57;2.70;;;12.60;85.60;;;;;;5043932;28;20215;-75
2023/01/20 03:14:07;;;;;;;4.63;2.40;;;12.70;85.70;;;;;;5045957;28;20195;-78
2023/01/20 03:16:36;;;;;;;6.90;2.57;;;12.70;85.60;;;;;;5040976;28;20210;-78
2023/01/20 03:19:06;;;;;;;7.63;2.50;;;12.70;85.60;;;;;;5039909;28;20227;-77
2023/01/20 03:21:35;;;;;;;4.43;2.20;;;12.70;85.60;;;;;;5042915;28;20191;-76
2023/01/20 03:24:05;;;;;;;5.13;2.63;;;12.70;85.60;;;;;;5039674;28;20841;-77
2023/01/20 03:26:33;;;;;;;7.37;2.63;;;12.70;85.60;;;;;;5050279;28;20252;-76
2023/01/20 03:29:05;;;;;;;5.20;2.23;;;12.80;85.60;;;;;;5041270;28;20706;-78
2023/01/20 03:31:38;;;;;;;6.70;3.00;;;12.80;85.60;;;;;;5043573;28;20195;-77
2023/01/20 03:34:11;;;;;;;10.13;3.73;;;12.80;85.70;;;;;;5039404;28;20197;-77
2023/01/20 03:36:42;;;;;;;10.23;4.20;;;12.80;85.70;;;;;;5041017;28;20569;-77
2023/01/20 03:39:11;;;;;;;8.87;3.57;;;12.90;85.70;;;;;;5041541;28;20248;-76
2023/01/20 03:41:48;;;;;;;11.60;4.17;;;12.90;86.60;;;;;;5045973;28;20245;-77
2023/01/20 03:44:22;;;;;;;12.03;4.47;;;12.90;85.80;;;;;;5037825;28;20249;-76
2023/01/20 03:46:57;;;;;;;16.63;5.43;;;12.90;85.90;;;;;;5045400;28;20195;-78
2023/01/20 03:49:33;;;;;;;14.97;5.40;;;12.90;85.90;;;;;;5036951;28;20226;-78
2023/01/20 03:52:04;;;;;;;18.10;5.27;;;12.90;85.90;;;;;;5043424;28;20197;-76
2023/01/20 03:54:38;;;;;;;9.77;3.57;;;12.90;85.90;;;;;;5027347;28;20730;-77
2023/01/20 03:57:11;;;;;;;13.50;3.63;;;12.90;85.90;;;;;;5020125;28;20205;-77
2023/01/20 03:59:42;;;;;;;7.37;3.73;;;12.90;85.90;;;;;;5017964;28;20200;-77
2023/01/20 04:02:11;;;;;;;9.27;3.07;;;12.90;85.90;;;;;;5019695;28;20654;-77
2023/01/20 04:04:44;;;;;;;7.93;3.07;;;13.00;86.20;;;;;;5030426;28;20211;-76
2023/01/20 04:07:17;;;;;;;9.13;3.67;;;13.00;86.30;;;;;;5024986;28;20191;-78
2023/01/20 04:09:50;;;;;;;13.80;3.60;;;13.00;86.60;;;;;;5021517;28;20242;-78
2023/01/20 04:12:19;;;;;;;10.50;3.93;;;13.00;86.60;;;;;;5017264;28;20507;-76
2023/01/20 04:14:47;;;;;;;9.30;4.40;;;13.00;86.50;;;;;;5022894;28;20207;-77
2023/01/20 04:17:16;;;;;;;10.30;3.63;;;13.00;86.50;;;;;;5020223;28;20219;-76
2023/01/20 04:19:46;;;;;;;8.23;3.40;;;13.00;86.40;;;;;;5020452;28;20192;-75
2023/01/20 04:22:22;;;;;;;9.47;3.80;;;13.00;86.30;;;;;;5024469;28;20665;-78
2023/01/20 04:24:54;;;;;;;9.43;3.83;;;13.00;86.30;;;;;;5014051;28;20199;-76
2023/01/20 04:27:23;;;;;;;8.07;3.80;;;13.00;86.50;;;;;;5017383;28;20192;-76
2023/01/20 04:29:51;;;;;;;12.80;3.83;;;12.90;86.50;;;;;;5025188;28;20204;-76
2023/01/20 04:32:19;;;;;;;8.53;3.80;;;12.90;86.30;;;;;;5024046;28;20259;-78
2023/01/20 04:34:52;;;;;;;8.80;4.30;;;12.90;86.50;;;;;;5013688;28;20616;-76
2023/01/20 04:37:20;;;;;;;12.80;4.13;;;12.90;86.50;;;;;;5022071;28;20238;-76
2023/01/20 04:39:48;;;;;;;9.47;4.03;;;12.90;86.50;;;;;;5024271;28;20641;-75
2023/01/20 04:42:17;;;;;;;9.57;3.60;;;12.90;86.80;;;;;;5018873;28;20754;-77
2023/01/20 04:44:45;;;;;;;11.10;4.90;;;12.90;87.10;;;;;;5018007;28;20200;-79
2023/01/20 04:47:13;;;;;;;12.23;4.23;;;12.90;87.40;;;;;;5021028;28;20205;-78
2023/01/20 04:49:42;;;;;;;10.77;4.30;;;12.90;88.30;;;;;;5019185;28;20672;-76
2023/01/20 04:52:11;;;;;;;11.30;4.10;;;12.90;88.50;;;;;;5019511;28;20212;-76
2023/01/20 04:54:40;;;;;;;9.87;4.40;;;12.90;88.50;;;;;;5020933;28;20196;-78
2023/01/20 04:57:08;;;;;;;9.87;4.60;;;12.90;88.40;;;;;;5022798;28;20273;-77
2023/01/20 04:59:36;;;;;;;6.70;3.80;;;12.90;88.60;;;;;;5012783;28;20205;-76
2023/01/20 05:02:05;;;;;;;9.97;4.37;;;12.90;88.30;;;;;;5019468;28;20250;-78
2023/01/20 05:04:33;;;;;;;10.57;4.60;;;12.90;88.30;;;;;;5017982;28;20223;-76
2023/01/20 05:07:01;;;;;;;10.97;5.07;;;12.90;88.10;;;;;;5021029;28;20191;-78
2023/01/20 05:09:31;;;;;;;9.30;5.00;;;12.90;88.00;;;;;;5017534;28;20200;-78
2023/01/20 05:12:00;;;;;;;9.80;4.83;;;12.90;88.00;;;;;;5020383;28;20277;-77
2023/01/20 05:14:28;;;;;;;10.83;4.67;;;12.90;88.00;;;;;;5023488;28;20200;-76
2023/01/20 05:16:56;;;;;;;6.63;3.73;;;12.90;88.60;;;;;;5015012;28;20267;-77
2023/01/20 05:19:25;;;;;;;9.40;3.70;;;12.90;88.50;;;;;;5018967;28;20645;-77
2023/01/20 05:21:53;;;;;;;7.97;2.87;;;12.90;89.10;;;;;;5014564;28;20199;-76
2023/01/20 05:24:21;;;;;;;8.70;2.73;;;12.90;90.00;;;;;;5028713;28;20232;-77
2023/01/20 05:26:51;;;;;;;8.47;3.13;;;13.00;90.60;;;;;;5038369;28;20196;-78
2023/01/20 05:29:19;;;;;;;8.40;2.97;;;13.00;91.00;;;;;;5024134;28;20200;-76
2023/01/20 05:31:48;;;;;;;10.60;3.13;;;13.10;90.90;;;;;;5021116;28;20215;-76
2023/01/20 05:34:16;;;;;;;8.03;3.03;;;13.20;91.00;;;;;;5025100;28;20650;-77
2023/01/20 05:36:44;;;;;;;5.17;2.77;;;13.20;91.40;;;;;;5023272;28;20301;-76
2023/01/20 05:39:13;;;;;;;11.13;4.07;;;13.30;91.40;;;;;;5016965;28;20196;-77
2023/01/20 05:41:41;;;;;;;15.80;3.60;;;13.30;91.50;;;;;;5013593;28;20192;-76
2023/01/20 05:44:11;;;;;;;10.43;3.17;;;13.40;91.40;;;;;;5016857;28;20200;-77
2023/01/20 05:46:39;;;;;;;10.40;3.63;;;13.40;91.40;;;;;;5022456;28;20262;-77
2023/01/20 05:49:09;;;;;;;11.97;4.00;;;13.50;91.50;;;;;;5015430;28;20291;-77
2023/01/20 05:51:38;;;;;;;10.50;3.77;;;13.50;91.60;;;;;;5019150;28;20591;-78
2023/01/20 05:54:06;;;;;;;10.10;3.77;;;13.60;91.50;;;;;;5020196;28;20293;-78
2023/01/20 05:56:35;;;;;;;11.97;3.70;;;13.60;91.50;;;;;;5020774;28;20196;-77
2023/01/20 05:59:05;;;;;;;9.47;4.40;;;13.70;91.50;;;;;;5020088;28;20200;-78
2023/01/20 06:01:35;;;;;;;7.70;3.90;;;13.70;91.50;;;;;;5026348;28;20195;-77
2023/01/20 06:04:04;;;;;;;14.17;3.80;;;13.80;91.50;;;;;;5028762;28;20238;-77
2023/01/20 06:06:32;;;;;;;10.53;4.00;;;13.80;91.60;;;;;;5018929;28;20585;-77
2023/01/20 06:09:00;;;;;;;12.70;3.90;;;13.80;91.70;;;;;;5016869;28;20610;-76
2023/01/20 06:11:29;;;;;;;16.17;4.07;;;13.80;91.60;;;;;;5020742;28;20199;-78
2023/01/20 06:13:57;;;;;;;11.30;3.87;;;13.90;91.60;;;;;;5020946;28;20200;-76
2023/01/20 06:16:25;;;;;;;9.13;3.63;;;13.90;91.50;;;;;;5029570;28;20264;-76
2023/01/20 06:18:56;;;;;;;9.87;4.13;;;13.90;91.50;;;;;;5017805;28;20234;-76
2023/01/20 06:21:24;;;;;;;10.53;4.50;;;14.00;91.50;;;;;;5025831;28;20196;-78
2023/01/20 06:23:53;;;;;;;9.77;4.17;;;14.00;91.50;;;;;;5018133;28;20243;-77
2023/01/20 06:26:22;;;;;;;7.20;4.00;;;14.00;91.60;;;;;;5017871;28;20659;-76
2023/01/20 06:28:50;;;;;;;9.90;4.03;;;14.10;91.50;;;;;;5016649;28;20192;-76
2023/01/20 06:31:19;;;;;;;11.23;4.67;;;14.20;91.50;;;;;;5026655;28;20212;-78
2023/01/20 06:33:47;;;;;;;10.93;4.13;;;14.20;91.50;;;;;;5022027;28;20220;-78
2023/01/20 06:36:17;;;;;;;12.17;4.27;;;14.20;91.50;;;;;;5020109;28;20196;-77
2023/01/20 06:38:49;;;;;;;11.87;4.40;;;14.30;91.50;;;;;;5021489;28;20225;-77
2023/01/20 06:41:19;;;;;;;11.03;4.40;;;14.30;91.50;;;;;;5018923;28;20565;-76
2023/01/20 06:43:49;;;;;;;13.10;4.13;;;14.40;91.40;;;;;;5016728;28;20196;-77
2023/01/20 06:46:17;;;;;;;9.67;4.23;;;14.40;91.40;;;;;;5029912;28;20200;-77
2023/01/20 06:48:46;;;;;;;12.20;4.43;;;14.40;91.40;;;;;;5029857;28;20202;-77
2023/01/20 06:51:18;;;;;;;10.70;4.70;;;14.50;91.40;;;;;;5029676;28;20544;-78
2023/01/20 06:53:47;;;;;;;14.40;5.23;;;14.50;91.50;;;;;;5019500;28;20708;-77
2023/01/20 06:56:16;;;;;;;14.50;4.83;;;14.50;91.50;;;;;;5029733;28;20196;-77
2023/01/20 06:58:45;;;;;;;10.37;4.97;;;14.60;91.40;;;;;;5025921;28;20220;-76
2023/01/20 07:01:15;;;;;;;10.73;5.00;;;14.60;91.50;;;;;;5025127;28;20760;-76
2023/01/20 07:03:44;;;;;;;10.43;4.30;;;14.60;91.60;;;;;;5026416;28;20541;-78
2023/01/20 07:06:24;;;;;;;8.63;4.30;;;14.70;91.60;;;;;;5018322;28;20257;-78
2023/01/20 07:08:53;;;;;;;13.03;4.90;;;14.70;91.60;;;;;;5022212;28;20191;-76
2023/01/20 07:11:21;;;;;;;10.53;4.70;;;14.80;91.40;;;;;;5026146;28;20615;-78
2023/01/20 07:13:50;;;;;;;9.67;4.70;;;14.80;91.50;;;;;;5018382;28;20204;-77
2023/01/20 07:16:18;;;;;;;21.33;6.27;;;14.80;91.40;;;;;;5021738;28;20301;-76
2023/01/20 07:18:48;;;;;;;9.60;4.57;;;14.90;91.40;;;;;;5024608;28;20665;-76
2023/01/20 07:21:17;;;;;;;10.40;4.60;;;15.00;91.30;;;;;;5023995;28;20242;-79
2023/01/20 07:23:48;;;;;;;9.97;4.17;;;15.00;91.60;;;;;;5029354;28;20250;-78
2023/01/20 07:26:18;;;;;;;9.50;4.50;;;15.00;91.20;;;;;;5025223;28;20594;-79
2023/01/20 07:28:47;;;;;;;9.17;4.70;;;15.10;91.10;;;;;;5021622;28;20195;-78
2023/01/20 07:31:17;;;;;;;12.50;3.97;;;15.10;91.00;;;;;;5020573;28;20205;-78
2023/01/20 07:33:46;;;;;;;11.97;4.37;;;15.20;91.00;;;;;;5028240;28;20279;-78
2023/01/20 07:36:15;;;;;;;13.30;4.73;;;15.20;90.90;;;;;;5024436;28;20196;-76
2023/01/20 07:38:48;;;;;;;11.60;5.25;;;15.20;90.80;;;;;;5013726;28;20482;-77
2023/01/20 07:41:18;;;;;;;9.53;4.17;;;15.40;90.90;;;;;;5023069;28;20726;-77
2023/01/20 07:43:48;;;;;;;11.63;4.50;;;15.30;90.80;;;;;;5015988;28;20196;-78
2023/01/20 07:46:17;;;;;;;9.10;4.17;;;15.40;90.80;;;;;;5030092;28;20199;-79
2023/01/20 07:48:46;;;;;;;12.43;4.83;;;15.40;90.70;;;;;;5020345;28;20648;-76
2023/01/20 07:51:15;;;;;;;15.60;4.50;;;15.50;90.60;;;;;;5021888;28;20200;-77
2023/01/20 07:53:45;;;;;;;11.87;4.07;;;15.50;90.60;;;;;;5025035;28;20251;-79
2023/01/20 07:56:17;;;;;;;8.30;4.07;;;15.50;90.50;;;;;;5019952;28;20193;-77
2023/01/20 07:58:46;;;;;;;8.53;5.23;;;15.60;90.50;;;;;;5019501;28;20213;-78
2023/01/20 08:01:16;;;;;;;12.57;4.10;;;15.60;90.40;;;;;;5017434;28;20712;-77
2023/01/20 08:03:46;;;;;;;13.60;5.07;;;15.60;90.40;;;;;;5017806;28;20588;-78
2023/01/20 08:06:16;;;;;;;18.57;5.30;;;15.70;90.40;;;;;;5028540;28;20672;-78
2023/01/20 08:08:44;;;;;;;9.73;4.00;;;15.70;90.30;;;;;;5025442;28;20200;-77
2023/01/20 08:11:15;;;;;;;10.90;4.37;;;15.70;90.20;;;;;;5032655;28;20210;-77
2023/01/20 08:13:45;;;;;;;12.13;3.93;;;15.70;90.20;;;;;;5021883;28;20258;-76
2023/01/20 08:16:16;;;;;;;10.37;4.40;;;15.80;90.20;;;;;;5022361;28;20266;-78
2023/01/20 08:18:45;;;;;;;10.70;4.37;;;15.80;90.10;;;;;;5031641;28;20212;-78
2023/01/20 08:21:21;;;;;;;7.83;4.07;;;15.80;90.10;;;;;;5032711;28;20212;-77
2023/01/20 08:23:50;;;;;;;13.13;4.10;;;15.80;90.00;;;;;;5028943;28;20253;-77
2023/01/20 08:26:20;;;;;;;8.90;3.70;;;15.90;90.00;;;;;;5019657;28;20200;-78
2023/01/20 08:28:48;;;;;;;13.07;4.63;;;15.90;90.00;;;;;;5023204;28;20196;-77
2023/01/20 08:31:18;;;;;;;11.13;3.73;;;16.00;89.80;;;;;;5031400;28;20211;-77
2023/01/20 08:33:47;;;;;;;11.63;4.00;;;16.00;90.20;;;;;;5016854;28;20657;-77
2023/01/20 08:36:17;;;;;;;9.03;4.33;;;16.00;89.40;;;;;;5031598;28;20207;-81
2023/01/20 08:38:47;;;;;;;8.23;3.83;;;16.00;89.20;;;;;;5023769;28;20212;-76
2023/01/20 08:41:17;;;;;;;14.77;4.27;;;16.10;89.40;;;;;;5037805;28;20210;-78
2023/01/20 08:43:48;;;;;;;8.90;3.93;;;16.10;88.90;;;;;;5025959;28;20542;-79
2023/01/20 08:46:18;;;;;;;10.00;4.27;;;16.20;88.90;;;;;;5033535;28;20195;-76
2023/01/20 08:48:48;;;;;;;7.00;3.33;;;16.30;88.80;;;;;;5019645;28;20561;-77
2023/01/20 08:51:19;;;;;;;10.77;4.40;;;16.30;88.60;;;;;;5031986;28;20274;-79
2023/01/20 08:53:47;;;;;;;9.73;4.47;;;16.30;88.60;;;;;;5033242;28;20723;-77
2023/01/20 08:56:17;;;;;;;11.30;4.47;;;16.40;88.50;;;;;;5023135;28;20204;-78
2023/01/20 08:58:47;;;;;;;7.93;4.40;;;16.40;88.30;;;;;;5025634;28;20258;-78
2023/01/20 09:01:19;;;;;;;10.20;4.37;;;16.50;88.20;;;;;;5026850;28;20195;-79
2023/01/20 09:03:48;;;;;;;7.27;4.17;;;16.50;88.10;;;;;;5021801;28;20196;-77
2023/01/20 09:06:36;;;;;;;7.63;4.00;;;16.50;88.10;;;;;;5032156;28;20214;-78
2023/01/20 09:09:05;;;;;;;10.17;4.47;;;16.50;88.20;;;;;;5023362;28;20187;-78
2023/01/20 09:11:33;;;;;;;11.77;3.90;;;16.50;88.00;;;;;;5033612;28;20265;-78
2023/01/20 09:14:03;;;;;;;10.27;3.73;;;16.50;88.10;;;;;;5025724;28;20203;-79
2023/01/20 09:16:31;;;;;;;9.37;4.00;;;16.50;88.10;;;;;;5031369;28;20252;-79
2023/01/20 09:19:00;;;;;;;6.63;3.60;;;16.50;88.00;;;;;;5016699;28;20216;-77
2023/01/20 09:21:28;;;;;;;7.73;4.10;;;16.60;88.10;;;;;;5027617;28;20196;-78
2023/01/20 09:23:56;;;;;;;9.90;3.63;;;16.60;88.10;;;;;;5021657;28;20200;-81
2023/01/20 09:26:25;;;;;;;8.27;4.20;;;16.60;88.10;;;;;;5022286;28;20248;-78
2023/01/20 09:29:12;;;;;;;6.63;3.67;;;16.60;88.00;;;;;;5032278;28;20270;-78
2023/01/20 09:31:43;;;;;;;10.70;4.50;;;16.60;87.90;;;;;;5021900;28;20195;-78
2023/01/20 09:34:17;;;;;;;9.63;3.50;;;16.60;88.10;;;;;;5026076;28;20223;-77
2023/01/20 09:36:49;;;;;;;7.23;3.37;;;16.60;87.80;;;;;;5020574;28;20245;-77
2023/01/20 09:45:23;;;;;;;11.63;3.93;;;16.60;87.60;;;;;;5030938;28;20246;-79
2023/01/20 09:48:02;;;;;;;9.67;4.00;;;16.60;87.40;;;;;;5030338;28;20192;-78
2023/01/20 09:53:39;;;;;;;7.63;3.43;;;16.60;87.10;;;;;;5022338;28;20604;-78
2023/01/20 09:56:12;;;;;;;11.90;4.23;;;16.60;87.10;;;;;;5029331;28;20278;-79
2023/01/20 09:58:48;;;;;;;15.03;3.57;;;16.60;87.20;;;;;;5030587;28;20191;-78
2023/01/20 10:01:29;;;;;;;9.17;3.70;;;16.60;87.20;;;;;;5034866;28;20203;-77
2023/01/20 10:04:03;;;;;;;13.63;4.23;;;16.60;87.20;;;;;;5028723;28;20246;-77
2023/01/20 10:06:38;;;;;;;6.87;4.00;;;16.60;87.20;;;;;;5035387;28;20336;-77
2023/01/20 10:09:16;;;;;;;9.50;3.57;;;16.60;87.30;;;;;;5032121;28;20188;-77
2023/01/20 10:11:48;;;;;;;6.07;3.70;;;16.60;87.20;;;;;;5035493;28;20207;-77
2023/01/20 10:14:21;;;;;;;6.90;3.57;;;16.60;87.20;;;;;;5030310;28;20532;-80
2023/01/20 10:16:58;;;;;;;6.00;3.50;;;16.60;87.20;;;;;;5030357;28;20199;-77
2023/01/20 10:19:34;;;;;;;6.73;3.97;;;16.60;87.10;;;;;;5025848;28;20313;-76
2023/01/20 10:22:10;;;;;;;10.80;4.03;;;16.70;87.10;;;;;;5033162;28;20229;-77
2023/01/20 10:24:43;;;;;;;11.10;3.73;;;16.70;87.10;;;;;;5039658;28;20327;-78
2023/01/20 10:27:12;;;;;;;12.17;4.77;;;16.80;86.90;;;;;;5019941;28;20241;-78
2023/01/20 10:29:44;;;;;;;7.13;3.80;;;16.90;86.80;;;;;;5026710;28;20679;-76
2023/01/20 10:32:26;;;;;;;8.10;3.97;;;17.00;86.80;;;;;;5019251;28;20237;-77
2023/01/20 10:34:57;;;;;;;9.73;3.83;;;17.00;86.30;;;;;;5014885;28;20673;-78
2023/01/20 10:37:26;;;;;;;14.07;4.82;;;17.00;86.00;;;;;;5014448;28;20439;-77
2023/01/20 10:39:58;;;;;;;7.30;3.93;;;17.10;86.00;;;;;;5001080;28;20218;-77
2023/01/20 10:42:27;;;;;;;7.27;4.00;;;17.20;86.00;;;;;;5023493;28;20195;-78
2023/01/20 10:44:56;;;;;;;6.43;3.87;;;17.30;86.00;;;;;;5031186;28;20250;-79
2023/01/20 10:47:41;;;;;;;9.43;4.10;;;17.30;85.50;;;;;;5028443;28;20200;-76
2023/01/20 10:50:35;;;;;;;9.80;4.10;;;17.30;84.80;;;;;;5023506;28;20203;-78
2023/01/20 10:53:32;;;;;;;9.43;4.27;;;17.50;85.10;;;;;;5021554;28;20231;-77
2023/01/20 10:56:15;;;;;;;8.03;3.70;;;17.60;84.00;;;;;;5026419;28;20715;-78
2023/01/20 10:58:45;;;;;;;9.37;3.37;;;17.70;83.90;;;;;;5011872;28;20275;-78
2023/01/20 11:01:17;;;;;;;9.00;3.70;;;17.80;83.40;;;;;;5024835;28;20617;-76
2023/01/20 11:03:49;;;;;;;9.70;3.50;;;17.80;82.40;;;;;;5019076;28;20191;-79
2023/01/20 11:06:20;;;;;;;6.87;3.57;;;17.90;82.20;;;;;;5030538;28;20192;-76
2023/01/20 11:08:49;;;;;;;7.77;3.30;;;17.90;81.30;;;;;;5029407;28;20727;-78
2023/01/20 11:11:21;;;;;;;5.70;3.30;;;18.00;80.80;;;;;;5027738;28;20196;-77
2023/01/20 11:13:51;;;;;;;8.07;3.20;;;17.90;80.40;;;;;;5023930;28;20196;-76
2023/01/20 11:16:23;;;;;;;5.80;3.20;;;18.00;80.90;;;;;;5027357;28;20199;-76
2023/01/20 11:18:58;;;;;;;7.67;3.23;;;18.10;80.50;;;;;;5022027;28;20250;-77
2023/01/20 11:21:29;;;;;;;7.90;3.20;;;18.00;80.40;;;;;;5020646;28;20200;-77
2023/01/20 11:23:58;;;;;;;9.50;3.33;;;18.10;80.50;;;;;;5014929;28;20197;-76
2023/01/20 11:26:30;;;;;;;6.30;3.23;;;18.10;80.00;;;;;;5018583;28;20259;-78
2023/01/20 11:29:00;;;;;;;8.53;3.40;;;18.10;80.20;;;;;;5018219;28;20193;-76
2023/01/20 11:31:39;;;;;;;8.53;3.20;;;18.10;80.10;;;;;;5021460;28;20199;-78
2023/01/20 11:34:24;;;;;;;7.20;3.50;;;18.00;79.40;;;;;;5024718;28;20195;-77
2023/01/20 11:37:15;;;;;;;8.63;3.47;;;18.10;79.90;;;;;;5015592;28;20188;-77
2023/01/20 11:39:56;;;;;;;10.93;3.53;;;18.00;79.60;;;;;;5026153;28;20188;-77
2023/01/20 11:42:26;;;;;;;9.10;3.77;;;18.00;79.70;;;;;;5014137;28;20203;-76
2023/01/20 11:44:57;;;;;;;10.03;3.33;;;18.00;79.60;;;;;;5030202;28;20191;-77
2023/01/20 11:47:42;;;;;;;9.33;3.20;;;18.00;79.40;;;;;;5020731;28;20188;-74
2023/01/20 11:50:32;;;;;;;12.80;3.60;;;18.00;80.10;;;;;;5030586;28;20243;-75
2023/01/20 11:53:18;;;;;;;4.83;2.80;;;18.00;79.10;;;;;;5015517;28;20232;-77
2023/01/20 11:55:53;;;;;;;10.13;2.93;;;18.00;79.00;;;;;;5026459;28;20192;-77
2023/01/20 11:58:23;;;;;;;5.37;3.13;;;18.00;79.00;;;;;;5019532;28;20199;-76
2023/01/20 12:00:58;;;;;;;6.37;3.07;;;18.00;78.70;;;;;;5019022;28;20548;-78
2023/01/20 12:03:49;;;;;;;7.27;2.87;;;18.00;78.50;;;;;;5011509;28;20602;-76
2023/01/20 12:06:23;;;;;;;5.53;2.93;;;18.00;78.10;;;;;;5020203;28;20204;-77
2023/01/20 12:08:56;;;;;;;7.60;3.20;;;18.00;78.00;;;;;;5009034;28;20646;-81
2023/01/20 12:11:28;;;;;;;5.37;2.87;;;18.00;78.00;;;;;;5020249;28;20251;-74
2023/01/20 12:14:21;;;;;;;6.72;3.30;;;18.00;77.90;;;;;;5012145;28;20439;-76
2023/01/20 12:17:20;;;;;;;8.43;2.77;;;18.10;78.20;;;;;;5014456;28;20196;-75
2023/01/20 12:20:05;;;;;;;4.67;3.23;;;18.00;77.70;;;;;;4977714;28;20196;-75
2023/01/20 12:22:44;;;;;;;6.90;3.20;;;18.00;77.80;;;;;;5017875;28;21008;-76
2023/01/20 12:25:18;;;;;;;6.27;3.00;;;18.00;77.70;;;;;;5006494;28;20814;-75
2023/01/20 12:27:54;;;;;;;9.83;3.17;;;18.00;77.20;;;;;;5008680;28;20199;-75
2023/01/20 12:30:45;;;;;;;4.17;2.73;;;18.00;77.00;;;;;;5006890;28;20191;-76
2023/01/20 12:33:23;;;;;;;14.93;3.40;;;18.00;76.80;;;;;;5012894;28;20198;-75
2023/01/20 12:36:24;;;;;;;7.93;3.03;;;18.00;77.00;;;;;;5005774;28;20697;-75
2023/01/20 12:39:34;;;;;;;7.63;3.33;;;18.00;76.80;;;;;;5020323;28;20195;-77
2023/01/20 12:43:06;;;;;;;6.45;3.05;;;17.90;76.30;;;;;;5006264;28;20478;-78
2023/01/20 12:46:35;;;;;;;5.83;3.07;;;18.00;76.60;;;;;;4925751;28;20225;-75
2023/01/20 12:49:33;;;;;;;5.00;2.73;;;18.00;75.50;;;;;;4928185;28;20250;-77
2023/01/20 12:52:23;;;;;;;7.67;3.40;;;18.00;75.80;;;;;;5008076;28;20249;-75
2023/01/20 12:55:13;;;;;;;6.70;3.20;;;18.00;75.40;;;;;;5017433;28;20283;-77
2023/01/20 12:58:00;;;;;;;6.73;3.17;;;18.10;75.30;;;;;;5019035;28;20187;-75
2023/01/20 13:00:44;;;;;;;9.37;3.43;;;18.10;75.10;;;;;;5021592;28;21240;-75
2023/01/20 13:03:41;;;;;;;5.90;3.10;;;18.20;74.90;;;;;;5017735;28;20918;-77
2023/01/20 13:06:33;;;;;;;6.50;3.03;;;18.40;75.60;;;;;;5023663;28;20192;-75
2023/01/20 13:09:16;;;;;;;4.23;2.80;;;18.50;75.30;;;;;;5010493;28;20245;-76
2023/01/20 13:12:02;;;;;;;7.37;3.50;;;18.60;74.80;;;;;;5027224;28;20195;-77
2023/01/20 13:14:42;;;;;;;5.73;3.30;;;18.70;73.60;;;;;;5017799;28;20673;-76
2023/01/20 13:17:30;;;;;;;5.67;3.07;;;18.70;73.80;;;;;;5024470;28;20290;-77
2023/01/20 13:20:03;;;;;;;4.17;2.57;;;18.60;73.40;;;;;;5013475;28;20199;-76
2023/01/20 13:22:33;;;;;;;8.40;3.33;;;18.60;73.30;;;;;;5010647;28;22120;-74